ADDS METAR Data INFO
IDs: Format: Raw Decoded Include TAF

Data at: 0212 UTC 17 Aug 2018

PADL 170156Z 17012KT 10SM OVC070 14/10 A2998 RMK AO2 SLP157 T01440100 PNO $
PADL 170056Z 17005KT 10SM SCT055 OVC075 15/07 A2998 RMK AO2 RAB30E44 SLP158 T01500072 PNO $
PADL 162256Z 15004KT 10SM BKN070 14/05 A3000 RMK AO2 SLP163 T01440050 PNO $
PADL 162156Z 17005KT 10SM BKN060 OVC070 13/04 A3000 RMK AO2 SLP165 T01330039 PNO $
PADL 162056Z 12005KT 10SM OVC075 12/08 A3000 RMK AO2 SLP166 6//// T01220083 50000 PNO $
PADL 161956Z 00000KT 10SM OVC070 12/08 A3001 RMK AO2 SLP167 T01170078 PNO $
PADL 161856Z 00000KT 10SM OVC070 10/08 A3001 RMK AO2 SLP166 T01000078 PNO $
PADL 161756Z 00000KT 10SM BKN070 08/07 A3000 RMK AO2 SLP166 6//// T00780067 10078 20022 53000 PNO $
PADL 161656Z 33004KT 10SM OVC070 07/06 A3000 RMK AO2 SLP165 T00670061 PNO $
PADL 161556Z 00000KT 10SM OVC070 04/04 A3000 RMK AO2 SLP165 T00440044 PNO $
PADL 161456Z AUTO 30004KT 10SM OVC070 03/03 A3000 RMK AO2 RAB11E21 SLP165 6//// T00330028 51003 PNO $
PADL 161356Z AUTO 00000KT 10SM BKN060 03/03 A3000 RMK AO2 SLP165 T00330028 PNO $
PADL 161156Z AUTO 00000KT 10SM CLR 06/05 A2999 RMK AO2 SLP163 6//// 7//// T00560050 10106 20050 53002 PNO $
PADL 161056Z AUTO 32003KT 10SM CLR 05/04 A2999 RMK AO2 SLP160 T00500044 PNO $
PADL 160956Z AUTO 00000KT 10SM CLR 06/05 A2999 RMK AO2 SLP160 T00560050 PNO $
PADL 160856Z AUTO 00000KT 10SM CLR 07/06 A2999 RMK AO2 SLP160 6//// T00670056 401280067 51007 PNO $
PADL 160756Z AUTO 00000KT 10SM CLR 07/06 A2998 RMK AO2 SLP159 T00720061 PNO $
PADL 160656Z AUTO 00000KT 10SM CLR 08/07 A2997 RMK AO2 SLP155 T00780067 PNO $
PADL 160556Z AUTO 00000KT 10SM CLR 11/07 A2997 RMK AO2 SLP154 6//// T01060072 10128 20106 53007 PNO $
PADL 160456Z 19006KT 10SM FEW030 12/08 A2996 RMK AO2 SLP150 T01170078 PNO $
PADL 160356Z 19007KT 10SM FEW030 13/08 A2995 RMK AO2 SLP147 T01280078 PNO $
PADL 160256Z 19007KT 10SM CLR 12/08 A2995 RMK AO2 SLP147 6//// T01220078 56002 PNO $
PADL 160156Z 18011KT 10SM CLR 13/09 A2995 RMK AO2 SLP147 T01280089 PNO $
PADL 160056Z 18009KT 10SM CLR 13/08 A2995 RMK AO2 SLP147 T01280083 PNO $
PADL 152356Z 18008KT 10SM CLR 13/08 A2995 RMK AO2 SLP149 6//// T01280078 10128 20100 50000 PNO $
PADL 152256Z 19010KT 10SM CLR 12/08 A2996 RMK AO2 SLP151 T01220083 PNO $
PADL 152156Z 19010KT 10SM CLR 13/07 A2996 RMK AO2 SLP150 T01280072 PNO $
PADL 152056Z 19008KT 10SM BKN037 OVC048 12/08 A2995 RMK AO2 SLP149 6//// T01220083 55000 PNO $
PADL 151956Z 17006KT 10SM BKN018 BKN024 OVC055 12/08 A2995 RMK AO2 SLP148 T01170083 PNO $
PADL 151951Z 18007KT 10SM SCT016 BKN026 OVC055 12/08 A2995 RMK AO2 PNO $
PADL 151903Z 20005KT 10SM FEW026 BKN032 OVC055 11/08 A2995 RMK AO2 PNO $
PADL 151856Z 20005KT 10SM FEW019 BKN028 OVC044 11/08 A2995 RMK AO2 SLP149 T01060083 PNO $
PADL 151756Z 21005KT 10SM FEW019 BKN028 OVC043 10/09 A2995 RMK AO2 SLP147 6//// T01000089 10100 20089 51004 PNO $
PADL 151754Z 21005KT 8SM FEW019 BKN028 OVC043 10/09 A2995 RMK AO2 PNO $
PADL 151656Z 22007KT 10SM SCT028 BKN044 OVC060 09/09 A2994 RMK AO2 SLP144 T00940089 PNO $
PADL 151556Z 24003KT 10SM BR BKN020 OVC027 09/09 A2994 RMK AO2 RAE08 SLP143 T00940089 PNO $
PADL 151532Z AUTO 00000KT 5SM BR FEW022 OVC029 09/09 A2994 RMK AO2 RAE08 PNO $
PADL 151456Z AUTO 00000KT 4SM -RA BR SCT022 OVC030 09/08 A2994 RMK AO2 RAB53 SLP144 6//// T00890083 56004 PNO $
PADL 151444Z AUTO 00000KT 9SM BKN022 OVC032 09/08 A2994 RMK AO2 PNO $
PADL 151418Z AUTO 00000KT 10SM OVC030 09/09 A2994 RMK AO2 PNO $